Forside
METAR-TAF:

METAR-TAF

Lufthavne :

Taylor County Airport

Medford, Wisconsin, USA

Breddekreds: 45-06-04N, længdekreds: 090-18-12W, højde: 448 m

Aktuelle vejr

Denne rapport blev lavet for 24 minutter siden, kl. 14:15 UTC
Vind 11 kt fra nord med vindstød på up til 16 kt
Temperatur 7°C
Fugtighed 70%
Tryk 1019 hPa
Sigt: 16.1 km
Spredte skyer i en højde af 1800 ft

METAR: KMDZ 201415Z AUTO 36011G16KT 10SM SCT018 07/02 A3008 RMK AO2 T00670022 TSNO

Tid: 09:39 (14:39 UTC)


TAF: fraværende

Vejrobservationer og prognoser fra mere end 4000 lufthavne (METAR og TAF).

De gule og røde prikker repræsenterer de meteorologiske stationer.

Flyt musen over at se navnet på stationen.

Så klik over at se vejr observationer og prognoser.

At skifte det kort: Klik på de grønne knapper med et sort kors for at zoome ind; på den grønne knap med en bindestreg for at zoome ud; eller på de grønne pile for tilstødende kort.


METAR-TAF: